Time;durP1;ratioP1;P1;durP2;ratioP2;P2;SDS_P1;SDS_P2;PMS_P1;PMS_P2;Temp;Humidity;BMP_temperature;BMP_pressure;BME280_temperature;BME280_humidity;BME280_pressure;Samples;Min_cycle;Max_cycle;Signal;HPM_P1;HPM_P2
2022/04/13 06:02:15;;;;;;;22.92;3.20;;;;;;;;;;5066068;23;20046;-86
2022/04/13 06:04:41;;;;;;;16.08;3.67;;;;;;;;;;4967893;28;20534;-86
2022/04/13 06:07:08;;;;;;;16.83;3.67;;;;;;;;;;4970255;28;20137;-86
2022/04/13 06:09:35;;;;;;;21.92;3.67;;;;;;;;;;4970610;28;20105;-87
2022/04/13 06:12:02;;;;;;;16.55;3.10;;;;;;;;;;4970465;28;20101;-87
2022/04/13 06:14:28;;;;;;;14.75;3.38;;;;;;;;;;4967131;28;20053;-87
2022/04/13 06:17:01;;;;;;;22.13;3.92;;;;;;;;;;4969281;28;20113;-88
2022/04/13 06:19:28;;;;;;;13.00;3.20;;;;;;;;;;4968264;28;20415;-87
2022/04/13 06:21:54;;;;;;;14.52;3.88;;;;;;;;;;4970687;28;20483;-88
2022/04/13 06:24:21;;;;;;;18.88;3.50;;;;;;;;;;4970651;28;20066;-91
2022/04/13 06:26:48;;;;;;;16.73;3.38;;;;;;;;;;4968833;28;20074;-89
2022/04/13 06:29:14;;;;;;;20.30;3.60;;;;;;;;;;4970698;28;20133;-92
2022/04/13 06:31:41;;;;;;;21.45;3.63;;;;;;;;;;4971596;28;20138;-88
2022/04/13 06:34:07;;;;;;;23.27;4.03;;;;;;;;;;4970925;28;20050;-90
2022/04/13 06:36:34;;;;;;;19.63;4.13;;;;;;;;;;4970975;28;20074;-88
2022/04/13 06:39:00;;;;;;;12.32;3.88;;;;;;;;;;4970656;28;20134;-90
2022/04/13 06:41:27;;;;;;;12.57;3.63;;;;;;;;;;4963990;28;20079;-90
2022/04/13 06:43:55;;;;;;;18.00;3.70;;;;;;;;;;4962450;28;20142;-86
2022/04/13 06:46:22;;;;;;;22.42;3.85;;;;;;;;;;4963858;28;20122;-88
2022/04/13 06:48:49;;;;;;;11.38;2.92;;;;;;;;;;4966610;28;20499;-88
2022/04/13 06:51:16;;;;;;;13.80;3.13;;;;;;;;;;4964343;28;20059;-91
2022/04/13 06:53:43;;;;;;;22.92;3.58;;;;;;;;;;4966901;28;20145;-91
2022/04/13 06:56:09;;;;;;;16.60;3.70;;;;;;;;;;4964488;28;20676;-91
2022/04/13 06:58:36;;;;;;;13.57;3.30;;;;;;;;;;4965270;28;20051;-88
2022/04/13 07:01:03;;;;;;;20.08;3.88;;;;;;;;;;4967544;28;20582;-91
2022/04/13 07:03:29;;;;;;;16.80;3.28;;;;;;;;;;4966364;28;20134;-92
2022/04/13 07:05:58;;;;;;;14.98;3.38;;;;;;;;;;4965061;28;20106;-92
2022/04/13 07:08:24;;;;;;;27.13;4.07;;;;;;;;;;4967322;28;20134;-92
2022/04/13 07:10:51;;;;;;;13.68;3.30;;;;;;;;;;4965910;28;20119;-92
2022/04/13 07:13:18;;;;;;;14.73;3.35;;;;;;;;;;4966021;28;20137;-90
2022/04/13 07:15:45;;;;;;;17.83;3.58;;;;;;;;;;4968253;28;20129;-90
2022/04/13 07:18:11;;;;;;;13.50;3.63;;;;;;;;;;4965770;28;20106;-92
2022/04/13 07:20:38;;;;;;;19.73;3.25;;;;;;;;;;4966888;28;20516;-89
2022/04/13 07:23:05;;;;;;;18.10;3.78;;;;;;;;;;4964446;28;20129;-88
2022/04/13 07:25:32;;;;;;;14.93;2.83;;;;;;;;;;4966478;28;20051;-90
2022/04/13 07:27:59;;;;;;;11.70;3.03;;;;;;;;;;4965596;28;20094;-88
2022/04/13 07:30:26;;;;;;;14.30;3.05;;;;;;;;;;4964928;28;20957;-89
2022/04/13 07:32:55;;;;;;;16.40;3.50;;;;;;;;;;4966904;28;20054;-90
2022/04/13 07:35:22;;;;;;;13.38;3.42;;;;;;;;;;4966852;28;20129;-85
2022/04/13 07:37:49;;;;;;;18.02;3.53;;;;;;;;;;4966174;28;20051;-86
2022/04/13 07:40:17;;;;;;;15.82;3.58;;;;;;;;;;4967644;28;20451;-85
2022/04/13 07:42:44;;;;;;;12.77;2.63;;;;;;;;;;4969935;28;20047;-87
2022/04/13 07:45:11;;;;;;;13.52;3.35;;;;;;;;;;4967491;28;20039;-88
2022/04/13 07:47:38;;;;;;;11.55;3.20;;;;;;;;;;4964794;28;20543;-89
2022/04/13 07:50:15;;;;;;;9.95;3.08;;;;;;;;;;4962455;28;20129;-86
2022/04/13 07:52:42;;;;;;;8.68;3.40;;;;;;;;;;4964775;28;20141;-88
2022/04/13 07:55:10;;;;;;;12.15;3.03;;;;;;;;;;4967042;28;20127;-88
2022/04/13 07:57:40;;;;;;;14.50;2.95;;;;;;;;;;4968890;28;20564;-88
2022/04/13 08:00:10;;;;;;;12.73;3.13;;;;;;;;;;4966363;28;20145;-88
2022/04/13 08:02:38;;;;;;;13.35;3.05;;;;;;;;;;4947884;29;20630;-87
2022/04/13 08:05:05;;;;;;;12.05;2.38;;;;;;;;;;4945939;28;20047;-85
2022/04/13 08:07:32;;;;;;;9.98;2.67;;;;;;;;;;4949290;28;20138;-88
2022/04/13 08:09:59;;;;;;;18.88;2.88;;;;;;;;;;4949503;28;20059;-88
2022/04/13 08:12:30;;;;;;;7.55;2.78;;;;;;;;;;4948493;28;20049;-89
2022/04/13 08:14:57;;;;;;;6.78;1.85;;;;;;;;;;4949279;28;20114;-89
2022/04/13 08:17:25;;;;;;;9.85;2.20;;;;;;;;;;4947653;28;20051;-92
2022/04/13 08:19:52;;;;;;;11.27;2.08;;;;;;;;;;4950356;28;20122;-90
2022/04/13 08:22:27;;;;;;;9.32;2.53;;;;;;;;;;4954288;28;20051;-93
2022/04/13 08:24:54;;;;;;;9.68;1.92;;;;;;;;;;4954533;28;20053;-91
2022/04/13 08:27:21;;;;;;;9.57;2.30;;;;;;;;;;4955131;28;20130;-89
2022/04/13 08:29:47;;;;;;;8.27;2.05;;;;;;;;;;4945755;28;20148;-90
2022/04/13 08:32:21;;;;;;;9.55;2.15;;;;;;;;;;4953630;28;20074;-91
2022/04/13 08:34:54;;;;;;;9.25;2.03;;;;;;;;;;4949596;28;20138;-91
2022/04/13 08:37:22;;;;;;;10.43;2.10;;;;;;;;;;4953139;28;20496;-91
2022/04/13 08:39:49;;;;;;;9.82;1.95;;;;;;;;;;4956561;28;20137;-92
2022/04/13 08:42:48;;;;;;;17.10;2.90;;;;;;;;;;4940969;28;20485;-91
2022/04/13 08:45:23;;;;;;;16.38;2.50;;;;;;;;;;4955953;28;20488;-89
2022/04/13 08:47:56;;;;;;;8.70;1.70;;;;;;;;;;4947891;29;20055;-90
2022/04/13 08:50:28;;;;;;;12.93;2.40;;;;;;;;;;4953151;28;20098;-89
2022/04/13 08:53:00;;;;;;;7.35;1.85;;;;;;;;;;4945484;29;20142;-90
2022/04/13 08:55:30;;;;;;;6.75;2.05;;;;;;;;;;4953964;28;20047;-88
2022/04/13 08:58:02;;;;;;;7.35;1.88;;;;;;;;;;4951559;29;20593;-89
2022/04/13 09:00:34;;;;;;;9.77;2.13;;;;;;;;;;4952515;28;20162;-87
2022/04/13 09:03:15;;;;;;;5.90;2.17;;;;;;;;;;4988857;28;20154;-88
2022/04/13 09:05:50;;;;;;;13.88;2.15;;;;;;;;;;4989176;28;20038;-90
2022/04/13 09:08:26;;;;;;;8.05;1.77;;;;;;;;;;4974576;28;20089;-87
2022/04/13 09:10:54;;;;;;;9.50;1.83;;;;;;;;;;4990973;28;20148;-88
2022/04/13 09:13:24;;;;;;;5.95;1.95;;;;;;;;;;5002144;28;20058;-85
2022/04/13 09:15:52;;;;;;;5.28;1.60;;;;;;;;;;4988206;28;20046;-86
2022/04/13 09:18:19;;;;;;;13.00;2.38;;;;;;;;;;4991431;28;20415;-91
2022/04/13 09:20:45;;;;;;;7.32;1.80;;;;;;;;;;4989829;28;20089;-88
2022/04/13 09:23:13;;;;;;;9.38;2.13;;;;;;;;;;4990507;28;20125;-89
2022/04/13 09:25:40;;;;;;;11.45;2.05;;;;;;;;;;4992970;28;20141;-88
2022/04/13 09:28:07;;;;;;;11.27;2.15;;;;;;;;;;4973802;28;20115;-87
2022/04/13 09:30:34;;;;;;;8.55;2.03;;;;;;;;;;4989792;28;20152;-88
2022/04/13 09:33:02;;;;;;;11.05;2.42;;;;;;;;;;4998313;28;20108;-89
2022/04/13 09:35:34;;;;;;;8.00;1.50;;;;;;;;;;4999111;28;20054;-92
2022/04/13 09:38:08;;;;;;;10.73;2.05;;;;;;;;;;4974508;28;20090;-92
2022/04/13 09:40:37;;;;;;;11.27;2.45;;;;;;;;;;4998926;28;20549;-91
2022/04/13 09:43:08;;;;;;;;;;;;;;;;;;4984115;28;20074;-90
2022/04/13 09:45:42;;;;;;;10.60;2.10;;;;;;;;;;5009229;28;19959;-94
2022/04/13 09:48:20;;;;;;;8.80;1.98;;;;;;;;;;4997547;28;20061;-94
2022/04/13 09:50:50;;;;;;;13.30;2.22;;;;;;;;;;4991625;28;20097;-93
2022/04/13 09:53:20;;;;;;;12.88;2.30;;;;;;;;;;4993776;28;20093;-92
2022/04/13 09:55:55;;;;;;;13.07;2.88;;;;;;;;;;5001663;28;20070;-93
2022/04/13 09:58:25;;;;;;;16.15;2.75;;;;;;;;;;4994776;28;20058;-95
2022/04/13 10:00:53;;;;;;;12.43;2.45;;;;;;;;;;4993120;28;20498;-93
2022/04/13 10:03:24;;;;;;;11.27;3.03;;;;;;;;;;4979374;28;20045;-91
2022/04/13 10:05:53;;;;;;;12.20;2.50;;;;;;;;;;4968297;28;20076;-89
2022/04/13 10:08:24;;;;;;;9.77;2.60;;;;;;;;;;4998634;28;20722;-91
2022/04/13 10:10:57;;;;;;;10.50;2.10;;;;;;;;;;4996215;28;20074;-91
2022/04/13 10:13:40;;;;;;;12.77;2.35;;;;;;;;;;4989863;28;20133;-92
2022/04/13 10:16:09;;;;;;;8.50;1.83;;;;;;;;;;4967096;28;20101;-90
2022/04/13 10:19:05;;;;;;;8.85;2.17;;;;;;;;;;5001145;28;20077;-93
2022/04/13 10:21:33;;;;;;;12.60;2.55;;;;;;;;;;4962596;28;20045;-91
2022/04/13 10:24:04;;;;;;;10.23;2.80;;;;;;;;;;4998736;28;20141;-92
2022/04/13 10:26:31;;;;;;;13.98;2.22;;;;;;;;;;4998664;28;20057;-92
2022/04/13 10:28:58;;;;;;;13.43;2.60;;;;;;;;;;4987913;28;20073;-92
2022/04/13 10:31:25;;;;;;;10.13;1.95;;;;;;;;;;5007116;28;20523;-91
2022/04/13 10:33:55;;;;;;;8.68;2.25;;;;;;;;;;5005310;28;20054;-92
2022/04/13 10:36:22;;;;;;;12.07;2.38;;;;;;;;;;4996675;28;20073;-92
2022/04/13 10:38:49;;;;;;;8.57;2.25;;;;;;;;;;4995864;28;20085;-92
2022/04/13 10:41:17;;;;;;;11.05;2.15;;;;;;;;;;4980720;28;20050;-90
2022/04/13 10:43:48;;;;;;;10.57;2.53;;;;;;;;;;4997170;28;20041;-92
2022/04/13 10:46:18;;;;;;;15.48;2.30;;;;;;;;;;4991822;28;20080;-92
2022/04/13 10:48:51;;;;;;;12.07;2.40;;;;;;;;;;4992682;28;20042;-92
2022/04/13 10:51:28;;;;;;;12.48;2.35;;;;;;;;;;4992411;28;20105;-91
2022/04/13 10:54:05;;;;;;;14.65;2.33;;;;;;;;;;4988827;28;20097;-93
2022/04/13 10:56:33;;;;;;;11.07;2.35;;;;;;;;;;4996987;28;20046;-91
2022/04/13 10:59:09;;;;;;;9.55;2.15;;;;;;;;;;4973628;28;20049;-92
2022/04/13 11:01:49;;;;;;;12.57;2.30;;;;;;;;;;4954743;28;20043;-89
2022/04/13 11:04:16;;;;;;;9.98;2.30;;;;;;;;;;4973009;28;20053;-94
2022/04/13 11:06:46;;;;;;;13.13;2.33;;;;;;;;;;4972409;28;20075;-91
2022/04/13 11:09:36;;;;;;;9.10;2.30;;;;;;;;;;4953475;28;20069;-92
2022/04/13 11:12:03;;;;;;;10.75;2.00;;;;;;;;;;4970858;28;20097;-91
2022/04/13 11:14:29;;;;;;;11.32;2.30;;;;;;;;;;4963077;28;20055;-91
2022/04/13 11:17:05;;;;;;;9.07;2.28;;;;;;;;;;4965786;28;20081;-91
2022/04/13 11:19:32;;;;;;;8.25;2.65;;;;;;;;;;4962684;28;20531;-91
2022/04/13 11:21:59;;;;;;;10.13;2.58;;;;;;;;;;4971817;28;20082;-91
2022/04/13 11:24:52;;;;;;;11.32;2.60;;;;;;;;;;4969111;28;20054;-92
2022/04/13 11:27:19;;;;;;;6.78;1.92;;;;;;;;;;4969059;28;20046;-92
2022/04/13 11:29:58;;;;;;;11.55;2.40;;;;;;;;;;4974849;28;20125;-89
2022/04/13 11:32:36;;;;;;;8.43;2.10;;;;;;;;;;4966811;28;20136;-91
2022/04/13 11:35:04;;;;;;;10.85;2.53;;;;;;;;;;4973419;28;20523;-92
2022/04/13 11:38:07;;;;;;;15.93;3.30;;;;;;;;;;4980232;28;20051;-93
2022/04/13 11:40:34;;;;;;;9.50;2.75;;;;;;;;;;4972616;28;20068;-92
2022/04/13 11:43:04;;;;;;;10.02;2.47;;;;;;;;;;4973598;28;20055;-90
2022/04/13 11:45:31;;;;;;;10.60;2.10;;;;;;;;;;4983210;28;20110;-93
2022/04/13 11:48:00;;;;;;;10.55;2.08;;;;;;;;;;4980485;28;20082;-92
2022/04/13 11:50:32;;;;;;;8.27;2.15;;;;;;;;;;4977785;28;20049;-90
2022/04/13 11:52:59;;;;;;;8.95;2.03;;;;;;;;;;4981335;28;20050;-90
2022/04/13 11:55:30;;;;;;;11.20;2.13;;;;;;;;;;4975869;28;20101;-91
2022/04/13 11:58:09;;;;;;;11.82;2.03;;;;;;;;;;4966237;28;20090;-89
2022/04/13 12:00:52;;;;;;;8.75;1.50;;;;;;;;;;4978770;28;20082;-89
2022/04/13 12:03:26;;;;;;;10.18;1.90;;;;;;;;;;4978523;28;20084;-90
2022/04/13 12:05:56;;;;;;;9.23;1.98;;;;;;;;;;4988872;28;20129;-91
2022/04/13 12:08:25;;;;;;;7.93;1.80;;;;;;;;;;4989711;28;20076;-91
2022/04/13 12:10:58;;;;;;;8.07;1.90;;;;;;;;;;4987351;28;20081;-91
2022/04/13 12:13:26;;;;;;;9.10;1.75;;;;;;;;;;4998403;28;20109;-91
2022/04/13 12:15:55;;;;;;;6.07;1.73;;;;;;;;;;4975136;28;20133;-91
2022/04/13 12:18:24;;;;;;;6.35;1.50;;;;;;;;;;4989840;28;20577;-91
2022/04/13 12:20:51;;;;;;;;;;;;;;;;;;4979086;28;20061;-90
2022/04/13 12:23:21;;;;;;;9.48;2.17;;;;;;;;;;4983898;28;20337;-90
2022/04/13 12:25:52;;;;;;;6.90;1.90;;;;;;;;;;4984527;28;20400;-92
2022/04/13 12:28:22;;;;;;;7.72;1.77;;;;;;;;;;4979137;28;20518;-94
2022/04/13 12:31:14;;;;;;;5.88;1.25;;;;;;;;;;4982633;28;20141;-92
2022/04/13 12:33:41;;;;;;;7.32;1.55;;;;;;;;;;4967984;28;20149;-89
2022/04/13 12:36:10;;;;;;;7.72;1.70;;;;;;;;;;4989350;28;20137;-88
2022/04/13 12:38:44;;;;;;;7.63;1.65;;;;;;;;;;4990153;28;20523;-93
2022/04/13 12:41:18;;;;;;;6.72;1.55;;;;;;;;;;4990758;28;20093;-91
2022/04/13 12:43:59;;;;;;;6.90;1.63;;;;;;;;;;4991202;28;20108;-91
2022/04/13 12:46:28;;;;;;;5.05;1.17;;;;;;;;;;4980092;28;20526;-92
2022/04/13 12:48:56;;;;;;;;;;;;;;;;;;4989754;28;20109;-93
2022/04/13 12:51:29;;;;;;;6.13;1.60;;;;;;;;;;4990265;28;19961;-92
2022/04/13 12:53:59;;;;;;;7.28;1.75;;;;;;;;;;4991353;28;20423;-93
2022/04/13 12:56:28;;;;;;;8.23;1.60;;;;;;;;;;4987458;28;20498;-88
2022/04/13 12:58:55;;;;;;;7.47;1.30;;;;;;;;;;4989170;28;20050;-90
2022/04/13 13:01:27;;;;;;;3.00;0.93;;;;;;;;;;4987572;28;20105;-92
2022/04/13 13:03:55;;;;;;;8.75;1.67;;;;;;;;;;4983544;28;20050;-90
2022/04/13 13:06:22;;;;;;;7.85;1.63;;;;;;;;;;4983666;28;20100;-87
2022/04/13 13:08:57;;;;;;;9.07;1.67;;;;;;;;;;4981702;28;20145;-90
2022/04/13 13:11:28;;;;;;;7.60;1.52;;;;;;;;;;4979925;28;20124;-89
2022/04/13 13:14:15;;;;;;;6.05;1.33;;;;;;;;;;4982979;28;20503;-89
2022/04/13 13:16:44;;;;;;;4.70;1.10;;;;;;;;;;4970796;28;20046;-90
2022/04/13 13:19:16;;;;;;;;;;;;;;;;;;4979188;28;20573;-86
2022/04/13 13:22:24;;;;;;;7.43;1.00;;;;;;;;;;4980285;28;19989;-87
2022/04/13 13:24:52;;;;;;;7.67;1.57;;;;;;;;;;4960881;28;20411;-87
2022/04/13 13:27:26;;;;;;;;;;;;;;;;;;4985823;28;20810;-90
2022/04/13 13:29:56;;;;;;;3.92;1.17;;;;;;;;;;4970793;28;20342;-89
2022/04/13 13:32:26;;;;;;;5.45;1.20;;;;;;;;;;4983321;28;20141;-90
2022/04/13 13:34:59;;;;;;;4.55;1.25;;;;;;;;;;4988348;28;20101;-90
2022/04/13 13:37:30;;;;;;;8.68;1.90;;;;;;;;;;4987785;28;20050;-89
2022/04/13 13:39:57;;;;;;;6.65;1.40;;;;;;;;;;4992014;28;20450;-92
2022/04/13 13:42:23;;;;;;;6.38;1.70;;;;;;;;;;4992133;28;20058;-88
2022/04/13 13:44:52;;;;;;;6.35;1.45;;;;;;;;;;4989797;28;20085;-90
2022/04/13 13:47:22;;;;;;;7.40;1.40;;;;;;;;;;4990415;28;20051;-90
2022/04/13 13:49:49;;;;;;;7.47;1.77;;;;;;;;;;4982657;28;20097;-89
2022/04/13 13:52:19;;;;;;;5.55;1.55;;;;;;;;;;4988655;28;20050;-88
2022/04/13 13:54:46;;;;;;;7.88;1.40;;;;;;;;;;4992157;28;20113;-89
2022/04/13 13:57:13;;;;;;;8.93;1.38;;;;;;;;;;4987477;28;20085;-89
2022/04/13 13:59:39;;;;;;;8.18;1.80;;;;;;;;;;4970304;28;20050;-88
2022/04/13 14:02:06;;;;;;;6.05;1.63;;;;;;;;;;4964243;28;20070;-87
2022/04/13 14:04:33;;;;;;;5.65;1.55;;;;;;;;;;4965477;28;20062;-90
2022/04/13 14:07:00;;;;;;;6.80;1.73;;;;;;;;;;4981801;28;20054;-92
2022/04/13 14:09:26;;;;;;;8.07;1.67;;;;;;;;;;4989149;28;20113;-90
2022/04/13 14:11:53;;;;;;;8.07;1.77;;;;;;;;;;4986158;28;20112;-90
2022/04/13 14:14:20;;;;;;;15.18;1.65;;;;;;;;;;4983579;28;20573;-92
2022/04/13 14:16:49;;;;;;;11.15;1.83;;;;;;;;;;4989703;28;20557;-92
2022/04/13 14:19:16;;;;;;;10.80;1.63;;;;;;;;;;4990527;28;20047;-94
2022/04/13 14:21:43;;;;;;;7.22;1.50;;;;;;;;;;4973532;28;20150;-91
2022/04/13 14:24:10;;;;;;;10.02;1.50;;;;;;;;;;4984301;28;20130;-91
2022/04/13 14:26:36;;;;;;;9.05;1.83;;;;;;;;;;4973478;28;20050;-93
2022/04/13 14:29:03;;;;;;;7.60;1.48;;;;;;;;;;4989318;28;20050;-92
2022/04/13 14:31:30;;;;;;;6.43;1.50;;;;;;;;;;4967436;28;20054;-91
2022/04/13 14:33:58;;;;;;;5.85;1.45;;;;;;;;;;4965517;28;20518;-93
2022/04/13 14:36:25;;;;;;;6.97;1.42;;;;;;;;;;4988545;28;20084;-92
2022/04/13 14:38:52;;;;;;;10.80;2.15;;;;;;;;;;4966704;28;20138;-94
2022/04/13 14:41:18;;;;;;;8.32;2.08;;;;;;;;;;4985740;28;20077;-95
2022/04/13 14:43:45;;;;;;;10.00;1.98;;;;;;;;;;4971928;28;20178;-94
2022/04/13 14:46:12;;;;;;;7.63;1.48;;;;;;;;;;4987207;28;20153;-93
2022/04/13 14:48:39;;;;;;;6.78;2.03;;;;;;;;;;4987643;28;20473;-95
2022/04/13 14:51:06;;;;;;;10.55;1.63;;;;;;;;;;4970045;28;20050;-92
2022/04/13 14:53:32;;;;;;;6.55;1.95;;;;;;;;;;4977910;28;20136;-92
2022/04/13 14:55:59;;;;;;;10.45;1.50;;;;;;;;;;4987788;28;20073;-91
2022/04/13 14:58:26;;;;;;;9.15;1.90;;;;;;;;;;4972010;28;20146;-92
2022/04/13 15:00:52;;;;;;;7.43;1.80;;;;;;;;;;4991758;28;20054;-93
2022/04/13 15:03:19;;;;;;;10.32;1.88;;;;;;;;;;4985809;28;20519;-91
2022/04/13 15:05:46;;;;;;;8.80;1.88;;;;;;;;;;4989643;28;20133;-92
2022/04/13 15:08:13;;;;;;;13.32;2.08;;;;;;;;;;4987439;28;20133;-92
2022/04/13 15:10:40;;;;;;;7.28;1.58;;;;;;;;;;4991753;28;20133;-92
2022/04/13 15:13:06;;;;;;;7.10;1.60;;;;;;;;;;4990627;28;20074;-91
2022/04/13 15:15:33;;;;;;;7.70;1.60;;;;;;;;;;4984592;28;20133;-94
2022/04/13 15:18:00;;;;;;;6.82;1.80;;;;;;;;;;4991681;28;20081;-95
2022/04/13 15:20:27;;;;;;;8.90;1.45;;;;;;;;;;4985375;28;20066;-95
2022/04/13 15:22:53;;;;;;;7.38;1.40;;;;;;;;;;4990930;28;20125;-95
2022/04/13 15:25:20;;;;;;;9.18;1.70;;;;;;;;;;4984349;28;20121;-93
2022/04/13 15:27:48;;;;;;;9.75;2.00;;;;;;;;;;5005943;28;20050;-95
2022/04/13 15:30:15;;;;;;;8.55;1.90;;;;;;;;;;4985700;28;20137;-95
2022/04/13 15:32:43;;;;;;;5.70;1.50;;;;;;;;;;4992334;28;20525;-95
2022/04/13 15:35:12;;;;;;;9.55;1.60;;;;;;;;;;4969726;28;20133;-93
2022/04/13 15:37:39;;;;;;;6.57;1.27;;;;;;;;;;4985034;28;20499;-94
2022/04/13 15:40:06;;;;;;;8.88;1.67;;;;;;;;;;4991644;28;20046;-94
2022/04/13 15:42:33;;;;;;;4.85;1.17;;;;;;;;;;4973380;28;20522;-93
2022/04/13 15:45:00;;;;;;;8.93;1.90;;;;;;;;;;4983870;28;20077;-93
2022/04/13 15:47:26;;;;;;;7.30;1.50;;;;;;;;;;4987407;28;20089;-95
2022/04/13 15:49:54;;;;;;;5.35;1.42;;;;;;;;;;4990884;28;20043;-93
2022/04/13 15:52:23;;;;;;;7.22;1.55;;;;;;;;;;4974055;28;23975;-94
2022/04/13 15:54:51;;;;;;;3.42;0.90;;;;;;;;;;4992554;28;20050;-93
2022/04/13 15:57:20;;;;;;;5.85;1.27;;;;;;;;;;4993485;28;20101;-94
2022/04/13 15:59:49;;;;;;;7.90;1.52;;;;;;;;;;4994362;28;20047;-90
2022/04/13 16:02:16;;;;;;;4.78;1.13;;;;;;;;;;4967352;28;20113;-93
2022/04/13 16:04:43;;;;;;;7.20;1.30;;;;;;;;;;4972523;28;20050;-94
2022/04/13 16:07:11;;;;;;;8.23;1.63;;;;;;;;;;4959904;28;20054;-94
2022/04/13 16:09:38;;;;;;;6.15;1.40;;;;;;;;;;4986110;28;20475;-92
2022/04/13 16:12:06;;;;;;;7.55;1.67;;;;;;;;;;4984096;28;20051;-93
2022/04/13 16:14:33;;;;;;;7.35;1.65;;;;;;;;;;4989033;28;20058;-94
2022/04/13 16:17:00;;;;;;;5.68;1.67;;;;;;;;;;4988703;28;20051;-92
2022/04/13 16:19:27;;;;;;;8.00;1.73;;;;;;;;;;4991433;28;20054;-93
2022/04/13 16:21:56;;;;;;;8.43;1.60;;;;;;;;;;4994558;28;20050;-95
2022/04/13 16:24:23;;;;;;;9.30;1.60;;;;;;;;;;4980145;28;23331;-94
2022/04/13 16:26:50;;;;;;;7.15;1.60;;;;;;;;;;4986302;28;20078;-94
2022/04/13 16:29:17;;;;;;;6.95;1.30;;;;;;;;;;4990631;28;20156;-93
2022/04/13 16:31:46;;;;;;;8.52;1.60;;;;;;;;;;4975136;28;20054;-95
2022/04/13 16:34:13;;;;;;;7.38;1.83;;;;;;;;;;4980568;28;20038;-95
2022/04/13 16:36:45;;;;;;;7.53;1.55;;;;;;;;;;4970606;28;20078;-96
2022/04/13 16:39:41;;;;;;;9.48;1.60;;;;;;;;;;4928862;28;20050;-96
2022/04/13 16:42:25;;;;;;;9.50;2.20;;;;;;;;;;4956893;28;20050;-94
2022/04/13 16:45:03;;;;;;;6.88;1.33;;;;;;;;;;4973066;28;20133;-95
2022/04/13 16:47:32;;;;;;;8.77;1.55;;;;;;;;;;4995727;28;20116;-96
2022/04/13 16:50:01;;;;;;;9.50;1.92;;;;;;;;;;4994668;28;20046;-85
2022/04/13 16:52:31;;;;;;;8.35;1.52;;;;;;;;;;4960997;28;20065;-96
2022/04/13 16:55:04;;;;;;;7.00;1.50;;;;;;;;;;4994803;28;20081;-96
2022/04/13 16:57:34;;;;;;;7.82;1.85;;;;;;;;;;4968854;28;20416;-95
2022/04/13 17:00:05;;;;;;;8.95;1.50;;;;;;;;;;4979438;28;20082;-96
2022/04/13 17:02:33;;;;;;;8.88;1.67;;;;;;;;;;4934269;28;20066;-94
2022/04/13 17:05:00;;;;;;;8.90;1.90;;;;;;;;;;4946267;28;20575;-95
2022/04/13 17:07:27;;;;;;;9.20;1.60;;;;;;;;;;4966670;28;20132;-96
2022/04/13 17:09:54;;;;;;;6.72;1.23;;;;;;;;;;4958504;28;20051;-93
2022/04/13 17:12:21;;;;;;;3.95;1.08;;;;;;;;;;4960801;28;20031;-96
2022/04/13 17:14:54;;;;;;;6.18;1.38;;;;;;;;;;4958231;28;20051;-96
2022/04/13 17:17:35;;;;;;;5.88;1.60;;;;;;;;;;4938460;28;20078;-96
2022/04/13 17:20:04;;;;;;;11.55;1.90;;;;;;;;;;4964714;28;20058;-96
2022/04/13 17:22:32;;;;;;;6.10;1.40;;;;;;;;;;4952266;28;20052;-96
2022/04/13 17:25:06;;;;;;;8.82;2.00;;;;;;;;;;4966088;28;20042;-96
2022/04/13 17:28:13;;;;;;;8.10;1.50;;;;;;;;;;4892473;28;20255;-96
2022/04/13 17:31:42;;;;;;;8.65;2.08;;;;;;;;;;4912351;28;20027;-96
2022/04/13 17:34:33;;;;;;;11.02;1.88;;;;;;;;;;4915654;29;20047;-96
2022/04/13 17:37:16;;;;;;;7.45;1.77;;;;;;;;;;4916733;29;20083;-96
2022/04/13 17:39:58;;;;;;;6.38;1.40;;;;;;;;;;4926168;29;20540;-95
2022/04/13 17:42:25;;;;;;;7.22;1.75;;;;;;;;;;4916083;29;20063;-96
2022/04/13 17:45:00;;;;;;;8.45;1.65;;;;;;;;;;4933726;29;20059;-96
2022/04/13 17:47:49;;;;;;;8.37;1.77;;;;;;;;;;4954774;29;20039;-96
2022/04/13 17:50:18;;;;;;;8.38;1.73;;;;;;;;;;4918654;29;20043;-96
2022/04/13 17:52:50;;;;;;;8.20;1.55;;;;;;;;;;4906615;29;20051;-96
2022/04/13 17:55:19;;;;;;;9.45;1.50;;;;;;;;;;4921456;29;20130;-96
2022/04/13 17:58:17;;;;;;;6.63;1.30;;;;;;;;;;4938435;28;20052;-96
2022/04/13 18:01:01;;;;;;;9.02;1.45;;;;;;;;;;4852403;29;20570;-96
2022/04/13 18:03:28;;;;;;;7.25;1.52;;;;;;;;;;4936490;28;20206;-95
2022/04/13 18:05:59;;;;;;;5.78;1.23;;;;;;;;;;4940667;29;20094;-94
2022/04/13 18:09:22;;;;;;;5.93;1.45;;;;;;;;;;4952984;28;20078;-96
2022/04/13 18:12:19;;;;;;;8.20;1.70;;;;;;;;;;4924486;28;20389;-96
2022/04/13 18:15:36;;;;;;;7.03;1.50;;;;;;;;;;4926971;29;20055;-96
2022/04/13 18:18:38;;;;;;;7.20;1.55;;;;;;;;;;4916007;29;20068;-96
2022/04/13 18:21:52;;;;;;;7.53;2.10;;;;;;;;;;4934047;28;20047;-96
2022/04/13 18:27:16;;;;;;;8.40;1.73;;;;;;;;;;5404885;23;20523;-96
2022/04/13 18:29:46;;;;;;;6.47;1.35;;;;;;;;;;4962363;28;20050;-95
2022/04/13 18:32:14;;;;;;;8.07;1.67;;;;;;;;;;4970096;28;20042;-95
2022/04/13 18:34:42;;;;;;;7.75;1.80;;;;;;;;;;4967913;28;20058;-96
2022/04/13 18:37:12;;;;;;;7.32;1.42;;;;;;;;;;4976846;28;20051;-96
2022/04/13 18:39:45;;;;;;;8.38;1.63;;;;;;;;;;4975731;28;20054;-96
2022/04/13 18:42:15;;;;;;;4.53;1.55;;;;;;;;;;4979861;28;20185;-96
2022/04/13 18:44:46;;;;;;;7.63;1.60;;;;;;;;;;4976193;28;20101;-96
2022/04/13 18:47:14;;;;;;;10.82;1.80;;;;;;;;;;4967141;28;20102;-96
2022/04/13 18:49:53;;;;;;;10.43;2.13;;;;;;;;;;4968988;28;20043;-96
2022/04/13 18:52:32;;;;;;;7.20;1.80;;;;;;;;;;4971017;28;20054;-96
2022/04/13 18:55:05;;;;;;;8.68;1.83;;;;;;;;;;4968667;28;20106;-96
2022/04/13 18:57:35;;;;;;;10.00;1.67;;;;;;;;;;4975582;28;20579;-96
2022/04/13 19:00:10;;;;;;;9.73;1.90;;;;;;;;;;4956084;28;20053;-96
2022/04/13 19:02:52;;;;;;;10.05;1.77;;;;;;;;;;4982793;28;20507;-96
2022/04/13 19:05:27;;;;;;;8.38;1.80;;;;;;;;;;4964130;28;20049;-96
2022/04/13 19:08:01;;;;;;;8.95;1.70;;;;;;;;;;4985399;28;20054;-96
2022/04/13 19:10:36;;;;;;;11.68;2.00;;;;;;;;;;4975004;28;20077;-96
2022/04/13 19:13:07;;;;;;;6.38;1.80;;;;;;;;;;4967269;28;20113;-95
2022/04/13 19:15:36;;;;;;;11.38;2.22;;;;;;;;;;4971368;28;20050;-94
2022/04/13 19:18:03;;;;;;;14.45;2.42;;;;;;;;;;4973806;28;20050;-94
2022/04/13 19:20:31;;;;;;;12.55;2.85;;;;;;;;;;4974011;28;20068;-94
2022/04/13 19:23:00;;;;;;;10.48;2.40;;;;;;;;;;4964835;28;20062;-95
2022/04/13 19:25:29;;;;;;;9.20;2.20;;;;;;;;;;4955546;28;20130;-94
2022/04/13 19:27:56;;;;;;;10.52;2.33;;;;;;;;;;4971325;28;20043;-92
2022/04/13 19:30:22;;;;;;;7.95;2.53;;;;;;;;;;4965183;28;20051;-93
2022/04/13 19:32:52;;;;;;;9.88;2.40;;;;;;;;;;4972133;28;20046;-94
2022/04/13 19:35:21;;;;;;;10.93;2.78;;;;;;;;;;4965123;28;20427;-93
2022/04/13 19:37:48;;;;;;;10.50;2.95;;;;;;;;;;4957675;28;20054;-94
2022/04/13 19:40:16;;;;;;;12.25;3.15;;;;;;;;;;4972167;28;21455;-94
2022/04/13 19:42:49;;;;;;;15.18;3.25;;;;;;;;;;4957742;28;20047;-96
2022/04/13 19:45:17;;;;;;;11.27;3.65;;;;;;;;;;4969616;28;20049;-95
2022/04/13 19:47:45;;;;;;;12.40;3.53;;;;;;;;;;4980604;28;20130;-95
2022/04/13 19:50:14;;;;;;;13.23;3.78;;;;;;;;;;4970450;28;20055;-95
2022/04/13 19:52:43;;;;;;;15.48;4.20;;;;;;;;;;4977644;28;20058;-93
2022/04/13 19:55:12;;;;;;;13.65;3.67;;;;;;;;;;4974166;28;20038;-94
2022/04/13 19:57:39;;;;;;;16.95;3.72;;;;;;;;;;4979656;28;20043;-95
2022/04/13 20:00:07;;;;;;;12.05;3.60;;;;;;;;;;4971087;28;20163;-96
2022/04/13 20:02:34;;;;;;;9.00;3.05;;;;;;;;;;4972376;28;20051;-96
2022/04/13 20:05:05;;;;;;;11.55;2.88;;;;;;;;;;4977446;28;20127;-96
2022/04/13 20:07:33;;;;;;;13.35;3.90;;;;;;;;;;4945425;28;20050;-96
2022/04/13 20:10:00;;;;;;;13.40;3.78;;;;;;;;;;4976193;28;20550;-95
2022/04/13 20:12:27;;;;;;;16.55;4.28;;;;;;;;;;4975185;28;20054;-94
2022/04/13 20:14:54;;;;;;;15.90;3.50;;;;;;;;;;4973149;28;20102;-94
2022/04/13 20:17:21;;;;;;;17.63;4.22;;;;;;;;;;4970964;28;20051;-94
2022/04/13 20:19:48;;;;;;;13.63;4.05;;;;;;;;;;4971422;28;20122;-95
2022/04/13 20:22:15;;;;;;;12.18;3.72;;;;;;;;;;4970939;28;20050;-95
2022/04/13 20:24:44;;;;;;;19.02;4.15;;;;;;;;;;4979642;28;20057;-95
2022/04/13 20:27:11;;;;;;;18.27;4.30;;;;;;;;;;4968126;28;20062;-95
2022/04/13 20:29:38;;;;;;;20.40;3.88;;;;;;;;;;4968253;28;20853;-95
2022/04/13 20:32:06;;;;;;;19.30;4.10;;;;;;;;;;4957784;28;20047;-94
2022/04/13 20:34:36;;;;;;;23.70;4.70;;;;;;;;;;4970901;28;20074;-94
2022/04/13 20:37:03;;;;;;;18.13;4.70;;;;;;;;;;4972721;28;20129;-94
2022/04/13 20:39:31;;;;;;;16.38;4.20;;;;;;;;;;4971472;28;20055;-93
2022/04/13 20:42:00;;;;;;;18.50;4.07;;;;;;;;;;4965523;28;20055;-94
2022/04/13 20:44:31;;;;;;;15.07;3.78;;;;;;;;;;4968453;28;20105;-96
2022/04/13 20:47:01;;;;;;;20.83;4.38;;;;;;;;;;4972590;28;20093;-96
2022/04/13 20:49:30;;;;;;;19.35;4.03;;;;;;;;;;4971449;28;20836;-96
2022/04/13 20:51:57;;;;;;;18.63;4.57;;;;;;;;;;4977384;28;20106;-95
2022/04/13 20:54:23;;;;;;;18.63;3.95;;;;;;;;;;4966161;28;20294;-95
2022/04/13 20:56:58;;;;;;;16.95;4.15;;;;;;;;;;4979405;28;20043;-95
2022/04/13 20:59:26;;;;;;;21.50;4.93;;;;;;;;;;4991059;28;20050;-94
2022/04/13 21:01:52;;;;;;;19.48;4.55;;;;;;;;;;4986938;28;20422;-95
2022/04/13 21:04:19;;;;;;;23.33;4.55;;;;;;;;;;4975976;28;20494;-92